Time;durP1;ratioP1;P1;durP2;ratioP2;P2;SDS_P1;SDS_P2;PMS_P1;PMS_P2;Temp;Humidity;BMP_temperature;BMP_pressure;BME280_temperature;BME280_humidity;BME280_pressure;Samples;Min_cycle;Max_cycle;Signal;HPM_P1;HPM_P2
2024/01/03 00:00:53;;;;;;;10.23;2.60;;;;;;;;;;4918421;29;20047;-71
2024/01/03 00:03:19;;;;;;;7.30;2.22;;;;;;;;;;4936934;29;20047;-71
2024/01/03 00:05:46;;;;;;;10.85;2.35;;;;;;;;;;4914331;29;20043;-71
2024/01/03 00:08:20;;;;;;;8.90;2.17;;;;;;;;;;4923470;29;20055;-71
2024/01/03 00:10:47;;;;;;;18.05;2.72;;;;;;;;;;4935714;29;20786;-71
2024/01/03 00:16:00;;;;;;;7.25;2.28;;;;;;;;;;4932720;29;20086;-71
2024/01/03 00:18:33;;;;;;;9.70;2.00;;;;;;;;;;4916761;29;20043;-71
2024/01/03 00:20:59;;;;;;;14.52;2.08;;;;;;;;;;4933736;29;20066;-71
2024/01/03 00:23:34;;;;;;;5.65;2.15;;;;;;;;;;4944397;29;20048;-72
2024/01/03 00:26:00;;;;;;;19.92;3.33;;;;;;;;;;4927362;29;20055;-71
2024/01/03 00:28:26;;;;;;;6.43;1.70;;;;;;;;;;4931786;29;20050;-71
2024/01/03 00:30:52;;;;;;;9.57;2.33;;;;;;;;;;4946473;29;20039;-71
2024/01/03 00:33:18;;;;;;;9.43;2.10;;;;;;;;;;4922416;29;20134;-71
2024/01/03 00:35:45;;;;;;;7.50;1.73;;;;;;;;;;4936688;29;20502;-71
2024/01/03 00:38:11;;;;;;;7.47;2.63;;;;;;;;;;4928198;29;20052;-71
2024/01/03 00:40:50;;;;;;;8.57;2.65;;;;;;;;;;4907185;29;20050;-71
2024/01/03 00:43:16;;;;;;;17.15;3.22;;;;;;;;;;4930917;29;20051;-72
2024/01/03 00:45:42;;;;;;;8.95;1.92;;;;;;;;;;4929666;29;20058;-71
2024/01/03 00:48:08;;;;;;;8.98;1.98;;;;;;;;;;4922506;29;20127;-71
2024/01/03 00:50:35;;;;;;;15.27;2.90;;;;;;;;;;4947885;29;20038;-71
2024/01/03 00:53:00;;;;;;;10.35;1.90;;;;;;;;;;4948584;29;20043;-71
2024/01/03 00:55:27;;;;;;;8.00;2.17;;;;;;;;;;4928849;29;20547;-71
2024/01/03 00:57:53;;;;;;;12.85;2.15;;;;;;;;;;4925048;29;20058;-71
2024/01/03 01:00:19;;;;;;;9.93;2.53;;;;;;;;;;4914033;29;20172;-71
2024/01/03 01:02:46;;;;;;;10.40;1.75;;;;;;;;;;4945485;28;20450;-71
2024/01/03 01:05:12;;;;;;;10.18;2.22;;;;;;;;;;4916664;29;20130;-71
2024/01/03 01:07:38;;;;;;;6.43;2.08;;;;;;;;;;4930022;29;20846;-70
2024/01/03 01:10:04;;;;;;;17.40;3.72;;;;;;;;;;4925513;29;20102;-71
2024/01/03 01:12:30;;;;;;;12.43;3.03;;;;;;;;;;4926984;29;20135;-71
2024/01/03 01:14:58;;;;;;;10.05;2.30;;;;;;;;;;4926442;29;20042;-71
2024/01/03 01:17:25;;;;;;;10.63;1.85;;;;;;;;;;4929896;29;20091;-71
2024/01/03 01:19:51;;;;;;;5.57;2.00;;;;;;;;;;4931663;29;20051;-71
2024/01/03 01:22:18;;;;;;;6.82;2.33;;;;;;;;;;4932359;29;20059;-71
2024/01/03 01:24:44;;;;;;;8.13;2.05;;;;;;;;;;4929324;29;20047;-70
2024/01/03 01:27:10;;;;;;;10.63;1.67;;;;;;;;;;4930773;29;20055;-71
2024/01/03 01:29:36;;;;;;;7.82;2.80;;;;;;;;;;4929909;29;21072;-71
2024/01/03 01:32:02;;;;;;;5.53;1.60;;;;;;;;;;4929260;29;20149;-71
2024/01/03 01:34:28;;;;;;;10.80;1.80;;;;;;;;;;4934074;29;20054;-71
2024/01/03 01:36:54;;;;;;;16.95;3.25;;;;;;;;;;4947712;28;20062;-70
2024/01/03 01:39:20;;;;;;;6.35;1.88;;;;;;;;;;4932988;28;20059;-71
2024/01/03 01:41:46;;;;;;;5.55;1.80;;;;;;;;;;4927661;29;20776;-71
2024/01/03 01:44:14;;;;;;;9.80;2.33;;;;;;;;;;4942857;28;20043;-71
2024/01/03 01:46:40;;;;;;;10.30;2.60;;;;;;;;;;4931427;29;20418;-72
2024/01/03 01:49:07;;;;;;;6.45;1.48;;;;;;;;;;4932387;29;20051;-71
2024/01/03 01:51:34;;;;;;;12.80;2.28;;;;;;;;;;4949909;28;20475;-71
2024/01/03 01:54:00;;;;;;;9.65;3.13;;;;;;;;;;4925803;29;20047;-71
2024/01/03 01:56:27;;;;;;;5.18;2.00;;;;;;;;;;4913283;29;20131;-71
2024/01/03 01:58:53;;;;;;;8.38;1.95;;;;;;;;;;4920684;29;20054;-71
2024/01/03 02:01:20;;;;;;;12.73;2.35;;;;;;;;;;4928918;29;20160;-71
2024/01/03 02:03:48;;;;;;;6.28;2.17;;;;;;;;;;4913424;29;20050;-70
2024/01/03 02:06:15;;;;;;;6.80;1.85;;;;;;;;;;4927661;29;20039;-70
2024/01/03 02:08:42;;;;;;;7.18;1.20;;;;;;;;;;4935691;28;20051;-71
2024/01/03 02:11:08;;;;;;;4.53;1.60;;;;;;;;;;4933949;29;20039;-70
2024/01/03 02:13:34;;;;;;;5.60;1.80;;;;;;;;;;4948151;28;20047;-71
2024/01/03 02:16:00;;;;;;;6.32;1.60;;;;;;;;;;4945298;28;20042;-70
2024/01/03 02:18:27;;;;;;;5.60;2.03;;;;;;;;;;4917337;29;20055;-71
2024/01/03 02:20:55;;;;;;;5.70;3.08;;;;;;;;;;4944577;29;20035;-71
2024/01/03 02:23:22;;;;;;;10.73;1.90;;;;;;;;;;4944917;29;20059;-70
2024/01/03 02:25:48;;;;;;;6.63;1.92;;;;;;;;;;4941124;29;20040;-70
2024/01/03 02:28:14;;;;;;;9.82;1.63;;;;;;;;;;4931530;29;20115;-71
2024/01/03 02:30:41;;;;;;;3.72;1.60;;;;;;;;;;4930378;29;20132;-71
2024/01/03 02:33:07;;;;;;;6.85;1.40;;;;;;;;;;4927083;29;20048;-71
2024/01/03 02:35:33;;;;;;;8.55;1.88;;;;;;;;;;4928149;29;20051;-71
2024/01/03 02:38:00;;;;;;;8.30;2.17;;;;;;;;;;4917492;29;20055;-71
2024/01/03 02:40:26;;;;;;;5.82;1.20;;;;;;;;;;4942821;28;20051;-71
2024/01/03 02:42:52;;;;;;;7.25;1.60;;;;;;;;;;4928219;29;20122;-71
2024/01/03 02:45:18;;;;;;;8.63;2.03;;;;;;;;;;4930897;29;20932;-70
2024/01/03 02:47:44;;;;;;;5.85;1.42;;;;;;;;;;4913237;29;20225;-70
2024/01/03 02:50:10;;;;;;;4.93;1.33;;;;;;;;;;4924922;29;20055;-71
2024/01/03 02:52:36;;;;;;;10.80;1.63;;;;;;;;;;4927349;29;20084;-71
2024/01/03 02:55:02;;;;;;;5.05;1.52;;;;;;;;;;4919719;29;20051;-71
2024/01/03 02:57:28;;;;;;;10.35;1.80;;;;;;;;;;4912675;29;20043;-71
2024/01/03 02:59:54;;;;;;;9.00;3.33;;;;;;;;;;4928869;29;20049;-71
2024/01/03 03:02:19;;;;;;;5.68;1.30;;;9.50;99.90;;;;;;4922301;29;20047;-70
2024/01/03 03:04:45;;;;;;;5.25;1.20;;;;;;;;;;4926327;28;20574;-71
2024/01/03 03:07:11;;;;;;;5.03;1.25;;;;;;;;;;4925357;29;20058;-71
2024/01/03 03:09:37;;;;;;;5.18;1.63;;;;;;;;;;4929004;29;20069;-71
2024/01/03 03:12:03;;;;;;;6.70;1.73;;;;;;;;;;4930277;29;20098;-71
2024/01/03 03:14:29;;;;;;;2.45;1.10;;;;;;;;;;4929404;29;20043;-70
2024/01/03 03:16:55;;;;;;;2.42;1.38;;;;;;;;;;4922628;29;20106;-70
2024/01/03 03:19:21;;;;;;;3.75;1.30;;;;;;;;;;4947659;29;20047;-70
2024/01/03 03:21:47;;;;;;;3.15;1.25;;;;;;;;;;4918132;29;20039;-70
2024/01/03 03:24:13;;;;;;;4.65;1.60;;;;;;;;;;4925122;29;20058;-70
2024/01/03 03:26:39;;;;;;;1.52;1.13;;;;;;;;;;4927483;29;20047;-71
2024/01/03 03:29:06;;;;;;;1.77;0.90;;;;;;;;;;4911800;29;20681;-71
2024/01/03 03:31:32;;;;;;;7.20;1.40;;;;;;;;;;4946713;29;20458;-70
2024/01/03 03:33:58;;;;;;;3.83;1.23;;;;;;;;;;4927797;29;20051;-71
2024/01/03 03:36:24;;;;;;;4.25;1.35;;;;;;;;;;4931597;29;20050;-70
2024/01/03 03:38:50;;;;;;;5.00;1.58;;;;;;;;;;4910756;29;20430;-71
2024/01/03 03:41:19;;;;;;;6.45;1.25;;;;;;;;;;4924894;29;20058;-71
2024/01/03 03:43:45;;;;;;;5.70;1.50;;;;;;;;;;4928282;29;20047;-70
2024/01/03 03:46:12;;;;;;;1.98;1.08;;;;;;;;;;4941794;29;20055;-71
2024/01/03 03:48:38;;;;;;;5.13;1.30;;;;;;;;;;4924547;29;20058;-71
2024/01/03 03:51:04;;;;;;;4.80;1.40;;;;;;;;;;4926220;29;20419;-71
2024/01/03 03:53:31;;;;;;;2.42;1.30;;;;;;;;;;4928696;29;20493;-71
2024/01/03 03:55:57;;;;;;;4.10;1.30;;;;;;;;;;4943114;29;20051;-71
2024/01/03 03:58:23;;;;;;;5.30;1.52;;;;;;;;;;4922508;29;20044;-71
2024/01/03 04:00:49;;;;;;;8.05;3.55;;;;;;;;;;4922122;29;20047;-71
2024/01/03 04:03:15;;;;;;;13.98;2.85;;;;;;;;;;4927907;29;20047;-71
2024/01/03 04:05:41;;;;;;;11.25;2.58;;;;;;;;;;4939356;29;20084;-71
2024/01/03 04:08:07;;;;;;;17.40;3.60;;;;;;;;;;4922203;29;20556;-71
2024/01/03 04:10:33;;;;;;;18.45;3.20;;;;;;;;;;4927677;29;20114;-71
2024/01/03 04:12:59;;;;;;;20.55;3.50;;;;;;;;;;4909121;29;20415;-70
2024/01/03 04:15:25;;;;;;;12.07;3.92;;;;;;;;;;4922600;29;20048;-70
2024/01/03 04:17:52;;;;;;;14.75;2.92;;;;;;;;;;4925299;29;20066;-70
2024/01/03 04:20:18;;;;;;;16.15;3.03;;;;;;;;;;4926783;29;20756;-69
2024/01/03 04:22:45;;;;;;;18.15;3.92;;;;;;;;;;4931123;29;20447;-71
2024/01/03 04:25:11;;;;;;;19.27;4.28;;;;;;;;;;4931139;29;20455;-70
2024/01/03 04:27:37;;;;;;;18.65;3.35;;;;;;;;;;4932567;29;20081;-70
2024/01/03 04:30:04;;;;;;;23.10;4.07;;;;;;;;;;4942113;29;20201;-69
2024/01/03 04:32:30;;;;;;;16.05;3.08;;;;;;;;;;4923024;29;20063;-69
2024/01/03 04:34:56;;;;;;;21.70;4.70;;;;;;;;;;4947994;29;20142;-70
2024/01/03 04:37:22;;;;;;;21.17;3.97;;;;;;;;;;4934796;28;20670;-70
2024/01/03 04:39:48;;;;;;;19.73;3.83;;;;;;;;;;4936029;29;20051;-70
2024/01/03 04:42:14;;;;;;;14.02;3.60;;;;;;;;;;4931064;29;20047;-69
2024/01/03 04:44:40;;;;;;;20.55;3.90;;;;;;;;;;4931434;29;20586;-70
2024/01/03 04:47:07;;;;;;;23.33;3.60;;;;;;;;;;4930056;29;20054;-70
2024/01/03 04:49:33;;;;;;;20.02;4.10;;;9.70;99.90;;;;;;4923754;29;20052;-70
2024/01/03 04:51:59;;;;;;;30.25;4.22;;;;;;;;;;4932659;29;20043;-70
2024/01/03 04:54:25;;;;;;;27.83;4.50;;;9.70;99.90;;;;;;4924995;29;20057;-70
2024/01/03 04:56:51;;;;;;;23.30;5.20;;;;;;;;;;4930768;29;20039;-70
2024/01/03 04:59:17;;;;;;;26.42;3.83;;;;;;;;;;4915750;29;20525;-70
2024/01/03 05:01:43;;;;;;;30.38;4.15;;;;;;;;;;4932499;29;20126;-70
2024/01/03 05:04:09;;;;;;;20.65;3.88;;;;;;;;;;4933231;29;20103;-70
2024/01/03 05:06:35;;;;;;;21.33;4.07;;;;;;;;;;4931242;28;20130;-70
2024/01/03 05:09:02;;;;;;;14.75;5.00;;;;;;;;;;4932361;29;20047;-70
2024/01/03 05:11:28;;;;;;;17.15;3.50;;;10.00;99.90;;;;;;4930640;29;20126;-70
2024/01/03 05:13:54;;;;;;;25.60;3.55;;;;;;;;;;4950233;29;20118;-70
2024/01/03 05:16:21;;;;;;;13.85;3.13;;;;;;;;;;4942133;29;20102;-70
2024/01/03 05:18:47;;;;;;;14.30;3.42;;;;;;;;;;4933540;29;20050;-70
2024/01/03 05:21:13;;;;;;;12.35;2.88;;;;;;;;;;4948805;29;20049;-70
2024/01/03 05:23:39;;;;;;;22.10;4.38;;;;;;;;;;4933126;29;20054;-69
2024/01/03 05:26:05;;;;;;;17.05;3.13;;;;;;;;;;4932356;29;20107;-70
2024/01/03 05:28:31;;;;;;;22.30;3.50;;;;;;;;;;4929535;29;20043;-69
2024/01/03 05:30:57;;;;;;;18.17;3.72;;;;;;;;;;4929518;29;20042;-70
2024/01/03 05:33:23;;;;;;;14.25;3.10;;;;;;;;;;4947853;29;20055;-70
2024/01/03 05:35:49;;;;;;;16.83;4.88;;;;;;;;;;4904409;29;20080;-70
2024/01/03 05:38:15;;;;;;;24.95;4.18;;;;;;;;;;4930610;29;20074;-70
2024/01/03 05:40:41;;;;;;;19.42;3.42;;;;;;;;;;4940520;28;20516;-69
2024/01/03 05:43:11;;;;;;;17.02;3.63;;;;;;;;;;4915320;29;20059;-69
2024/01/03 05:45:37;;;;;;;12.63;2.78;;;;;;;;;;4927736;29;20493;-70
2024/01/03 05:48:03;;;;;;;17.27;3.97;;;;;;;;;;4908217;29;20075;-70
2024/01/03 05:50:29;;;;;;;20.08;3.47;;;;;;;;;;4931987;29;20042;-69
2024/01/03 05:52:55;;;;;;;21.70;4.75;;;;;;;;;;4926792;29;20048;-70
2024/01/03 05:55:21;;;;;;;18.92;3.20;;;;;;;;;;4924717;29;20447;-70
2024/01/03 05:57:47;;;;;;;23.40;4.60;;;;;;;;;;4926725;29;20085;-70
2024/01/03 06:00:15;;;;;;;15.32;3.70;;;;;;;;;;4931380;29;20054;-70
2024/01/03 06:02:42;;;;;;;17.75;3.40;;;;;;;;;;4911071;29;20487;-70
2024/01/03 06:05:09;;;;;;;12.98;3.22;;;;;;;;;;4929052;29;20051;-70
2024/01/03 06:07:35;;;;;;;20.27;4.30;;;;;;;;;;4926380;29;20685;-70
2024/01/03 06:10:01;;;;;;;19.05;4.25;;;;;;;;;;4922969;29;20134;-70
2024/01/03 06:12:27;;;;;;;22.73;3.30;;;;;;;;;;4928088;29;20047;-70
2024/01/03 06:14:53;;;;;;;13.25;2.75;;;;;;;;;;4926932;29;20542;-70
2024/01/03 06:17:19;;;;;;;14.57;2.67;;;;;;;;;;4923620;29;20043;-70
2024/01/03 06:19:45;;;;;;;12.90;2.70;;;;;;;;;;4927613;29;20106;-70
2024/01/03 06:22:11;;;;;;;11.13;2.70;;;;;;;;;;4943768;28;20050;-70
2024/01/03 06:24:37;;;;;;;7.47;2.42;;;;;;;;;;4924455;29;20506;-70
2024/01/03 06:27:04;;;;;;;8.13;2.05;;;;;;;;;;4921230;29;20047;-70
2024/01/03 06:29:30;;;;;;;8.88;2.72;;;;;;;;;;4922714;29;20146;-70
2024/01/03 06:31:57;;;;;;;10.57;2.70;;;;;;;;;;4927649;29;20055;-70
2024/01/03 06:34:23;;;;;;;6.50;1.88;;;;;;;;;;4927530;29;20105;-70
2024/01/03 06:36:49;;;;;;;14.60;3.30;;;;;;;;;;4924166;29;20048;-70
2024/01/03 06:39:15;;;;;;;21.80;5.47;;;;;;;;;;4924665;28;20043;-70
2024/01/03 06:41:41;;;;;;;10.60;2.90;;;;;;;;;;4939843;29;20066;-70
2024/01/03 06:44:07;;;;;;;12.45;2.50;;;;;;;;;;4927184;29;20418;-70
2024/01/03 06:46:33;;;;;;;14.93;3.17;;;;;;;;;;4927864;29;20518;-70
2024/01/03 06:49:00;;;;;;;22.33;3.53;;;;;;;;;;4927543;29;20079;-70
2024/01/03 06:51:26;;;;;;;17.83;3.28;;;;;;;;;;4911962;29;20047;-70
2024/01/03 06:53:52;;;;;;;22.63;4.00;;;;;;;;;;4944919;29;20391;-70
2024/01/03 06:56:23;;;;;;;18.95;3.63;;;;;;;;;;4925950;29;20046;-70
2024/01/03 06:58:49;;;;;;;15.63;3.10;;;;;;;;;;4944980;29;20047;-70
2024/01/03 07:01:16;;;;;;;14.52;2.83;;;;;;;;;;4927439;28;20126;-70
2024/01/03 07:03:42;;;;;;;13.15;3.10;;;;;;;;;;4927754;29;20054;-70
2024/01/03 07:06:07;;;;;;;16.75;3.30;;;9.80;99.90;;;;;;4927272;29;20134;-70
2024/01/03 07:08:33;;;;;;;21.52;4.05;;;;;;;;;;4937536;29;20405;-70
2024/01/03 07:10:59;;;;;;;21.77;4.20;;;;;;;;;;4944748;29;20043;-70
2024/01/03 07:13:25;;;;;;;10.30;2.60;;;;;;;;;;4922805;29;20039;-70
2024/01/03 07:15:51;;;;;;;23.35;4.82;;;;;;;;;;4923863;28;20048;-70
2024/01/03 07:18:17;;;;;;;16.23;2.85;;;;;;;;;;4942009;28;20418;-70
2024/01/03 07:20:43;;;;;;;17.55;2.72;;;;;;;;;;4924282;29;20039;-70
2024/01/03 07:23:09;;;;;;;12.45;3.40;;;;;;;;;;4923148;28;20128;-71
2024/01/03 07:25:36;;;;;;;17.30;2.78;;;;;;;;;;4920478;29;20495;-72
2024/01/03 07:28:02;;;;;;;18.15;3.42;;;;;;;;;;4924908;29;20079;-71
2024/01/03 07:30:28;;;;;;;10.15;2.38;;;;;;;;;;4922490;29;20558;-72
2024/01/03 07:32:56;;;;;;;10.05;2.50;;;;;;;;;;4907712;29;20051;-71
2024/01/03 07:35:25;;;;;;;8.52;2.55;;;;;;;;;;4944312;28;20058;-71
2024/01/03 07:37:51;;;;;;;7.47;1.83;;;;;;;;;;4941107;29;20091;-71
2024/01/03 07:40:17;;;;;;;5.43;1.33;;;;;;;;;;4923215;29;20043;-71
2024/01/03 07:42:43;;;;;;;8.35;1.70;;;;;;;;;;4922867;29;20047;-72
2024/01/03 07:45:10;;;;;;;16.42;3.03;;;;;;;;;;4939436;28;20066;-71
2024/01/03 07:47:36;;;;;;;8.60;2.10;;;;;;;;;;4930180;29;20078;-71
2024/01/03 07:50:02;;;;;;;10.88;2.50;;;;;;;;;;4940325;28;20858;-71
2024/01/03 07:52:28;;;;;;;11.60;2.78;;;;;;;;;;4922468;28;20043;-70
2024/01/03 07:54:54;;;;;;;12.73;3.13;;;;;;;;;;4908769;28;20576;-70
2024/01/03 07:57:20;;;;;;;12.95;3.15;;;;;;;;;;4950044;28;20055;-71
2024/01/03 07:59:47;;;;;;;14.77;2.92;;;;;;;;;;4935006;29;20058;-71
2024/01/03 08:02:13;;;;;;;15.90;3.83;;;;;;;;;;4928261;29;20082;-71
2024/01/03 08:04:40;;;;;;;8.73;2.42;;;;;;;;;;4929546;29;20110;-72
2024/01/03 08:07:06;;;;;;;16.10;2.83;;;;;;;;;;4947014;29;20081;-72
2024/01/03 08:09:34;;;;;;;13.00;2.78;;;;;;;;;;4912784;29;20047;-75
2024/01/03 08:12:00;;;;;;;9.57;2.92;;;;;;;;;;4945212;29;20051;-72
2024/01/03 08:14:26;;;;;;;17.50;3.15;;;;;;;;;;4927992;28;20043;-72
2024/01/03 08:16:52;;;;;;;11.52;3.20;;;;;;;;;;4928689;29;20123;-73
2024/01/03 08:19:18;;;;;;;16.33;2.38;;;;;;;;;;4924440;29;20051;-72
2024/01/03 08:21:44;;;;;;;11.00;2.20;;;;;;;;;;4911177;29;20043;-72
2024/01/03 08:24:10;;;;;;;10.48;2.00;;;;;;;;;;4925576;29;20431;-71
2024/01/03 08:26:36;;;;;;;12.63;2.90;;;;;;;;;;4911037;29;20043;-70
2024/01/03 08:29:02;;;;;;;13.25;2.70;;;;;;;;;;4923147;29;20051;-71
2024/01/03 08:31:28;;;;;;;8.75;2.83;;;;;;;;;;4912061;28;20083;-72
2024/01/03 08:33:54;;;;;;;11.38;2.60;;;;;;;;;;4925374;29;20769;-71
2024/01/03 08:36:21;;;;;;;11.73;3.20;;;;;;;;;;4926474;28;20051;-71
2024/01/03 08:38:47;;;;;;;18.55;2.70;;;;;;;;;;4923023;28;20061;-71
2024/01/03 08:41:17;;;;;;;9.30;2.13;;;;;;;;;;4927632;28;20062;-73
2024/01/03 08:43:44;;;;;;;12.25;2.28;;;;;;;;;;4941237;28;20039;-74
2024/01/03 08:46:10;;;;;;;10.90;2.55;;;;;;;;;;4924417;29;20122;-71
2024/01/03 08:48:37;;;;;;;10.48;2.40;;;;;;;;;;4928649;29;20637;-72
2024/01/03 08:51:03;;;;;;;8.95;2.50;;;;;;;;;;4940193;29;20051;-71
2024/01/03 08:53:30;;;;;;;8.57;2.10;;;;;;;;;;4917859;29;20039;-72
2024/01/03 08:55:56;;;;;;;11.35;2.90;;;;;;;;;;4924289;29;20043;-71
2024/01/03 08:58:22;;;;;;;13.93;2.47;;;;;;;;;;4927007;29;20139;-72
2024/01/03 09:00:48;;;;;;;11.77;3.72;;;;;;;;;;4923394;29;20047;-71
2024/01/03 09:03:15;;;;;;;11.75;2.63;;;;;;;;;;4941453;28;20054;-72
2024/01/03 09:05:42;;;;;;;16.13;2.63;;;;;;;;;;4940538;28;20043;-72
2024/01/03 09:08:08;;;;;;;11.25;2.60;;;;;;;;;;4935746;29;20062;-71
2024/01/03 09:10:35;;;;;;;16.45;2.88;;;;;;;;;;4929639;29;20054;-71
2024/01/03 09:13:01;;;;;;;23.17;3.15;;;;;;;;;;4927334;29;20126;-71
2024/01/03 09:15:27;;;;;;;13.93;2.85;;;;;;;;;;4924869;29;20067;-72
2024/01/03 09:17:53;;;;;;;13.77;2.78;;;;;;;;;;4945555;28;20051;-71
2024/01/03 09:20:19;;;;;;;14.13;3.33;;;;;;;;;;4943326;28;20079;-72
2024/01/03 09:23:07;;;;;;;17.67;3.15;;;;;;;;;;4926174;29;20551;-77
2024/01/03 09:25:33;;;;;;;13.63;2.80;;;;;;;;;;4915977;29;20634;-72
2024/01/03 09:27:59;;;;;;;10.85;2.70;;;;;;;;;;4925009;29;20766;-72
2024/01/03 09:30:25;;;;;;;10.52;3.42;;;;;;;;;;4942095;28;20054;-71
2024/01/03 09:32:51;;;;;;;13.30;3.65;;;;;;;;;;4924507;29;20162;-71
2024/01/03 09:35:18;;;;;;;16.80;2.85;;;;;;;;;;4923256;29;20050;-71
2024/01/03 09:37:44;;;;;;;9.20;2.30;;;;;;;;;;4926825;29;20098;-71
2024/01/03 09:40:11;;;;;;;16.48;2.58;;;;;;;;;;4925799;29;20526;-72
2024/01/03 09:42:37;;;;;;;20.77;2.38;;;;;;;;;;4926402;29;20163;-71
2024/01/03 09:45:04;;;;;;;12.07;2.78;;;;;;;;;;4922048;29;21012;-70
2024/01/03 09:47:30;;;;;;;13.52;2.55;;;;;;;;;;4942434;28;20051;-72
2024/01/03 09:49:56;;;;;;;11.43;3.20;;;;;;;;;;4923876;29;20047;-70
2024/01/03 09:52:23;;;;;;;8.40;2.88;;;;;;;;;;4928056;29;20422;-71
2024/01/03 09:54:50;;;;;;;14.57;2.08;;;;;;;;;;4927967;29;20605;-70
2024/01/03 09:57:18;;;;;;;9.38;2.15;;;;;;;;;;4921702;29;20506;-70
2024/01/03 09:59:44;;;;;;;11.80;2.60;;;;;;;;;;4916252;28;20057;-70
2024/01/03 10:02:12;;;;;;;8.88;2.22;;;;;;;;;;4946574;28;20122;-70
2024/01/03 10:04:38;;;;;;;14.48;3.05;;;;;;;;;;4945080;29;20893;-70
2024/01/03 10:07:04;;;;;;;13.30;2.28;;;;;;;;;;4944665;29;20039;-70
2024/01/03 10:09:41;;;;;;;9.27;2.30;;;10.50;99.90;;;;;;4945151;29;20099;-70
2024/01/03 10:12:15;;;;;;;9.68;2.70;;;;;;;;;;4942992;29;20050;-70
2024/01/03 10:14:41;;;;;;;11.10;2.33;;;;;;;;;;4944647;28;20499;-71
2024/01/03 10:17:10;;;;;;;11.45;2.08;;;;;;;;;;4927905;29;20127;-72
2024/01/03 10:19:36;;;;;;;15.65;2.45;;;;;;;;;;4924544;29;20039;-71
2024/01/03 10:22:03;;;;;;;14.45;3.00;;;;;;;;;;4945535;29;20450;-72
2024/01/03 10:24:31;;;;;;;14.00;3.55;;;;;;;;;;4927932;29;20050;-72
2024/01/03 10:27:08;;;;;;;13.02;3.30;;;;;;;;;;4928036;29;20050;-74
2024/01/03 10:29:34;;;;;;;12.55;3.30;;;;;;;;;;4918786;29;20102;-71
2024/01/03 10:32:02;;;;;;;11.55;2.97;;;;;;;;;;4925147;29;20095;-70
2024/01/03 10:34:29;;;;;;;18.10;3.53;;;;;;;;;;4927379;29;20042;-71
2024/01/03 10:36:56;;;;;;;14.63;3.20;;;;;;;;;;4927644;29;20047;-71
2024/01/03 10:39:22;;;;;;;16.52;3.22;;;;;;;;;;4927571;29;20050;-70
2024/01/03 10:41:49;;;;;;;15.57;3.63;;;;;;;;;;4927373;29;20050;-71
2024/01/03 10:44:16;;;;;;;23.20;5.45;;;;;;;;;;4926218;29;20057;-70
2024/01/03 10:46:42;;;;;;;22.90;4.72;;;;;;;;;;4940036;29;20055;-70
2024/01/03 10:49:08;;;;;;;18.10;3.47;;;10.10;99.90;;;;;;4942657;29;20058;-71
2024/01/03 10:51:44;;;;;;;20.50;3.13;;;;;;;;;;4943412;29;20038;-70
2024/01/03 10:54:14;;;;;;;21.15;4.57;;;;;;;;;;4939112;29;20106;-70
2024/01/03 10:56:42;;;;;;;14.38;4.03;;;;;;;;;;4942915;29;20047;-71
2024/01/03 10:59:09;;;;;;;22.73;4.20;;;;;;;;;;4927664;29;20126;-72
2024/01/03 11:01:45;;;;;;;17.27;3.50;;;;;;;;;;4941251;29;20074;-71
2024/01/03 11:04:21;;;;;;;17.42;3.55;;;;;;;;;;4926963;29;20062;-70
2024/01/03 11:06:53;;;;;;;18.85;3.50;;;;;;;;;;4940781;28;20137;-71
2024/01/03 11:09:19;;;;;;;16.63;3.25;;;;;;;;;;4944028;29;20050;-71
2024/01/03 11:11:45;;;;;;;23.35;3.85;;;;;;;;;;4944705;29;20039;-70
2024/01/03 11:14:17;;;;;;;14.77;3.65;;;;;;;;;;4942828;29;20059;-70
2024/01/03 11:16:43;;;;;;;22.83;3.85;;;10.70;99.90;;;;;;4941525;29;20047;-72
2024/01/03 11:19:10;;;;;;;25.67;3.72;;;;;;;;;;4941470;29;20043;-71
2024/01/03 11:21:36;;;;;;;25.77;4.07;;;;;;;;;;4941865;29;20058;-71
2024/01/03 11:24:02;;;;;;;14.63;3.70;;;;;;;;;;4942029;29;20493;-69
2024/01/03 11:26:47;;;;;;;18.00;3.72;;;;;;;;;;4943650;28;20047;-71
2024/01/03 11:29:36;;;;;;;25.90;4.57;;;10.60;99.90;;;;;;4941927;29;20507;-72
2024/01/03 11:32:09;;;;;;;16.95;3.58;;;;;;;;;;4945843;29;20510;-71
2024/01/03 11:34:44;;;;;;;20.92;3.38;;;;;;;;;;4944450;29;20041;-71
2024/01/03 11:37:19;;;;;;;16.70;4.05;;;;;;;;;;4946050;29;20286;-71
2024/01/03 11:39:50;;;;;;;17.83;4.05;;;;;;;;;;4946153;29;20703;-71
2024/01/03 11:42:20;;;;;;;27.23;5.90;;;;;;;;;;4945794;29;20050;-71
2024/01/03 11:44:46;;;;;;;27.40;3.90;;;;;;;;;;4946562;29;20043;-70
2024/01/03 11:47:13;;;;;;;18.65;3.55;;;;;;;;;;4943562;29;20641;-71
2024/01/03 11:49:43;;;;;;;14.48;4.43;;;;;;;;;;4936515;29;20486;-71
2024/01/03 11:52:09;;;;;;;20.02;4.22;;;;;;;;;;4941179;29;20034;-71
2024/01/03 11:54:35;;;;;;;18.58;3.90;;;;;;;;;;4942434;29;20051;-71
2024/01/03 11:57:07;;;;;;;20.33;3.58;;;;;;;;;;4942677;29;20721;-70
2024/01/03 11:59:33;;;;;;;17.88;3.85;;;;;;;;;;4940957;29;20087;-71
2024/01/03 12:02:00;;;;;;;20.38;4.00;;;;;;;;;;4941122;29;20122;-70
2024/01/03 12:04:27;;;;;;;21.50;3.47;;;;;;;;;;4940615;29;20039;-71
2024/01/03 12:06:58;;;;;;;20.55;3.60;;;;;;;;;;4944289;29;20917;-71
2024/01/03 12:09:28;;;;;;;16.40;3.20;;;;;;;;;;4942964;29;20043;-71
2024/01/03 12:11:55;;;;;;;15.38;2.83;;;;;;;;;;4941205;29;20107;-71
2024/01/03 12:14:21;;;;;;;20.25;3.67;;;;;;;;;;4938642;29;20660;-71
2024/01/03 12:16:47;;;;;;;13.57;3.45;;;;;;;;;;4940903;29;20043;-71
2024/01/03 12:19:26;;;;;;;20.13;3.40;;;;;;;;;;4942495;29;20042;-73
2024/01/03 12:21:53;;;;;;;18.33;3.78;;;;;;;;;;4945718;29;20047;-72
2024/01/03 12:24:19;;;;;;;12.13;2.80;;;;;;;;;;4943795;29;20522;-73
2024/01/03 12:26:48;;;;;;;27.85;4.32;;;;;;;;;;4945395;29;20051;-72
2024/01/03 12:29:14;;;;;;;20.08;4.22;;;;;;;;;;4939604;29;20133;-72
2024/01/03 12:31:40;;;;;;;16.88;3.20;;;10.20;99.90;;;;;;4943335;29;20063;-72
2024/01/03 12:34:06;;;;;;;17.27;4.32;;;;;;;;;;4940980;29;20773;-72
2024/01/03 12:36:32;;;;;;;22.88;4.80;;;;;;;;;;4946240;29;20055;-72
2024/01/03 12:38:59;;;;;;;18.80;3.25;;;;;;;;;;4938613;28;20051;-72
2024/01/03 12:41:25;;;;;;;24.48;4.80;;;;;;;;;;4945769;29;20050;-72
2024/01/03 12:43:51;;;;;;;11.98;2.65;;;;;;;;;;4944753;29;20067;-72
2024/01/03 12:46:17;;;;;;;18.33;3.33;;;;;;;;;;4943640;29;20125;-71
2024/01/03 12:48:44;;;;;;;21.25;3.50;;;;;;;;;;4942491;29;20331;-72
2024/01/03 12:51:10;;;;;;;21.33;3.33;;;;;;;;;;4944819;29;20118;-73
2024/01/03 12:53:37;;;;;;;21.52;2.97;;;;;;;;;;4940490;29;20079;-71
2024/01/03 12:56:03;;;;;;;23.27;4.30;;;;;;;;;;4940823;29;20047;-72
2024/01/03 12:58:29;;;;;;;17.40;2.97;;;;;;;;;;4945163;29;20051;-71
2024/01/03 13:00:56;;;;;;;19.05;3.28;;;;;;;;;;4946209;29;20506;-71
2024/01/03 13:03:22;;;;;;;20.60;3.22;;;;;;;;;;4940838;29;20059;-71
2024/01/03 13:05:48;;;;;;;17.02;3.40;;;;;;;;;;4944120;29;20060;-72
2024/01/03 13:08:14;;;;;;;14.95;2.65;;;;;;;;;;4944936;29;20493;-73
2024/01/03 13:10:40;;;;;;;13.77;2.53;;;;;;;;;;4944020;29;20089;-72
2024/01/03 13:13:06;;;;;;;10.27;2.60;;;;;;;;;;4942872;29;20134;-72
2024/01/03 13:15:32;;;;;;;18.08;3.00;;;;;;;;;;4944271;29;20469;-72
2024/01/03 13:18:00;;;;;;;15.80;3.45;;;;;;;;;;4940376;29;20043;-72
2024/01/03 13:20:26;;;;;;;17.77;3.20;;;;;;;;;;4941757;28;20920;-73
2024/01/03 13:22:52;;;;;;;18.52;3.03;;;;;;;;;;4940244;29;20042;-72
2024/01/03 13:25:19;;;;;;;16.05;3.13;;;;;;;;;;4938490;29;20090;-71
2024/01/03 13:27:45;;;;;;;20.02;3.22;;;;;;;;;;4943704;29;20062;-71
2024/01/03 13:30:11;;;;;;;18.33;2.90;;;;;;;;;;4944953;29;20047;-71
2024/01/03 13:32:41;;;;;;;11.80;2.58;;;;;;;;;;4941839;29;20079;-72
2024/01/03 13:35:07;;;;;;;12.63;2.58;;;;;;;;;;4940068;29;20047;-72
2024/01/03 13:37:33;;;;;;;14.23;3.78;;;;;;;;;;4942029;29;20050;-72
2024/01/03 13:39:59;;;;;;;15.70;3.50;;;;;;;;;;4944507;29;20043;-72
2024/01/03 13:42:25;;;;;;;17.73;2.85;;;;;;;;;;4944785;29;20526;-72
2024/01/03 13:44:51;;;;;;;12.85;3.40;;;;;;;;;;4943746;29;20055;-72
2024/01/03 13:47:20;;;;;;;13.23;3.08;;;;;;;;;;4943761;29;20134;-72
2024/01/03 13:49:46;;;;;;;13.45;2.92;;;;;;;;;;4941792;28;20043;-71
2024/01/03 13:52:14;;;;;;;14.52;2.92;;;;;;;;;;4942594;29;20054;-71
2024/01/03 13:54:40;;;;;;;13.52;2.40;;;;;;;;;;4942782;29;20085;-71
2024/01/03 13:57:06;;;;;;;11.60;3.22;;;;;;;;;;4943537;29;20122;-73
2024/01/03 13:59:32;;;;;;;16.48;2.85;;;;;;;;;;4941970;29;20078;-71
2024/01/03 14:01:58;;;;;;;11.27;3.65;;;;;;;;;;4943160;29;20135;-72
2024/01/03 14:04:24;;;;;;;12.77;2.53;;;;;;;;;;4927245;29;20043;-71
2024/01/03 14:06:51;;;;;;;9.80;2.25;;;;;;;;;;4942144;29;20454;-72
2024/01/03 14:09:18;;;;;;;10.57;3.28;;;;;;;;;;4942189;29;20063;-72
2024/01/03 14:11:44;;;;;;;11.07;2.22;;;;;;;;;;4941743;29;20058;-71
2024/01/03 14:14:10;;;;;;;8.68;2.15;;;;;;;;;;4943533;29;20043;-71
2024/01/03 14:16:37;;;;;;;8.70;1.88;;;;;;;;;;4943628;29;20876;-71
2024/01/03 14:19:03;;;;;;;9.20;2.42;;;;;;;;;;4943918;29;20051;-72
2024/01/03 14:21:29;;;;;;;6.93;1.95;;;;;;;;;;4941805;29;20579;-71
2024/01/03 14:23:55;;;;;;;14.40;2.50;;;;;;;;;;4937448;28;20050;-71
2024/01/03 14:26:21;;;;;;;11.15;2.33;;;;;;;;;;4935653;28;20062;-71
2024/01/03 14:28:47;;;;;;;9.48;1.95;;;;;;;;;;4938508;28;20047;-71
2024/01/03 14:31:13;;;;;;;8.10;1.90;;;;;;;;;;4941066;29;20538;-72